OIIE/IKA METAR and TAF weather

Enter ICAO airport designator
Station Type Date Time Source
OIIE METAR 2019/04/25 18:00 UTC NOAA

OIIE 251800Z 32003KT CAVOK 12/M01 Q1022


Station Type Date Time Source
OIIE Decoded METAR 2019/04/25 18:00 UTC NOAA

Station name not available
Apr 25, 2019 - 02:00 PM EDT / 2019.04.25 1800 UTC
Wind: from the NW (320 degrees) at 3 MPH (3 KT):0
Visibility: greater than 7 mile(s):0
Temperature: 53 F (12 C)
Dew Point: 30 F (-1 C)
Relative Humidity: 40%
Pressure (altimeter): 30.18 in. Hg (1022 hPa)
ob: OIIE 251800Z 32003KT CAVOK 12/M01 Q1022
cycle: 18

Station Type Date Time Source
OIIE TAF 2019/04/25 18:00 UTC NOAA

TAF OIIE 251730Z 2518/2624 32008KT 7000 SCT090
TEMPO 2521/2603 32020KT
TEMPO 2608/2514 FEW035CB SCT040

Example: see airport list